sensor_id;sensor_type;location;lat;lon;timestamp;temperature;humidity
30371;DHT22;17164;48.590;11.410;2022-07-29T00:01:40;21.30;99.90
30371;DHT22;17164;48.590;11.410;2022-07-29T00:04:06;21.30;99.90
30371;DHT22;17164;48.590;11.410;2022-07-29T00:06:31;21.30;99.90
30371;DHT22;17164;48.590;11.410;2022-07-29T00:08:57;21.30;99.90
30371;DHT22;17164;48.590;11.410;2022-07-29T00:11:22;21.20;99.90
30371;DHT22;17164;48.590;11.410;2022-07-29T00:13:48;21.20;99.90
30371;DHT22;17164;48.590;11.410;2022-07-29T00:16:13;21.10;99.90
30371;DHT22;17164;48.590;11.410;2022-07-29T00:18:39;21.10;99.90
30371;DHT22;17164;48.590;11.410;2022-07-29T00:21:05;21.10;99.90
30371;DHT22;17164;48.590;11.410;2022-07-29T00:23:30;21.10;99.90
30371;DHT22;17164;48.590;11.410;2022-07-29T00:25:56;21.10;99.90
30371;DHT22;17164;48.590;11.410;2022-07-29T00:28:21;21.00;99.90
30371;DHT22;17164;48.590;11.410;2022-07-29T00:30:47;20.90;99.90
30371;DHT22;17164;48.590;11.410;2022-07-29T00:33:12;20.80;99.90
30371;DHT22;17164;48.590;11.410;2022-07-29T00:35:38;20.70;99.90
30371;DHT22;17164;48.590;11.410;2022-07-29T00:38:17;20.70;99.90
30371;DHT22;17164;48.590;11.410;2022-07-29T00:40:44;20.60;99.90
30371;DHT22;17164;48.590;11.410;2022-07-29T00:43:11;20.60;99.90
30371;DHT22;17164;48.590;11.410;2022-07-29T00:45:36;20.50;99.90
30371;DHT22;17164;48.590;11.410;2022-07-29T00:48:03;20.50;99.90
30371;DHT22;17164;48.590;11.410;2022-07-29T00:50:31;20.40;99.90
30371;DHT22;17164;48.590;11.410;2022-07-29T00:52:57;20.40;99.90
30371;DHT22;17164;48.590;11.410;2022-07-29T00:55:23;20.30;99.90
30371;DHT22;17164;48.590;11.410;2022-07-29T00:57:49;20.30;99.90
30371;DHT22;17164;48.590;11.410;2022-07-29T01:00:22;20.30;99.90
30371;DHT22;17164;48.590;11.410;2022-07-29T01:02:48;20.30;99.90
30371;DHT22;17164;48.590;11.410;2022-07-29T01:05:16;20.30;99.90
30371;DHT22;17164;48.590;11.410;2022-07-29T01:07:43;20.30;99.90
30371;DHT22;17164;48.590;11.410;2022-07-29T01:10:12;20.20;99.90
30371;DHT22;17164;48.590;11.410;2022-07-29T01:12:39;20.20;99.90
30371;DHT22;17164;48.590;11.410;2022-07-29T01:15:06;20.30;99.90
30371;DHT22;17164;48.590;11.410;2022-07-29T01:18:01;20.20;99.90
30371;DHT22;17164;48.590;11.410;2022-07-29T01:28:49;20.20;99.90
30371;DHT22;17164;48.590;11.410;2022-07-29T01:31:22;20.20;99.90
30371;DHT22;17164;48.590;11.410;2022-07-29T01:33:57;20.20;99.90
30371;DHT22;17164;48.590;11.410;2022-07-29T01:36:27;20.20;99.90
30371;DHT22;17164;48.590;11.410;2022-07-29T01:39:05;20.20;99.90
30371;DHT22;17164;48.590;11.410;2022-07-29T01:41:32;20.20;99.90
30371;DHT22;17164;48.590;11.410;2022-07-29T01:44:06;20.20;99.90
30371;DHT22;17164;48.590;11.410;2022-07-29T01:46:38;20.20;99.90
30371;DHT22;17164;48.590;11.410;2022-07-29T01:49:31;20.10;99.90
30371;DHT22;17164;48.590;11.410;2022-07-29T01:52:05;20.10;99.90
30371;DHT22;17164;48.590;11.410;2022-07-29T01:54:43;20.00;99.90
30371;DHT22;17164;48.590;11.410;2022-07-29T01:57:14;20.00;99.90
30371;DHT22;17164;48.590;11.410;2022-07-29T01:59:40;20.00;99.90
30371;DHT22;17164;48.590;11.410;2022-07-29T02:02:08;20.00;99.90
30371;DHT22;17164;48.590;11.410;2022-07-29T02:04:36;20.00;99.90
30371;DHT22;17164;48.590;11.410;2022-07-29T02:07:05;19.90;99.90
30371;DHT22;17164;48.590;11.410;2022-07-29T02:09:35;19.90;99.90
30371;DHT22;17164;48.590;11.410;2022-07-29T02:12:03;19.90;99.90
30371;DHT22;17164;48.590;11.410;2022-07-29T02:14:36;19.90;99.90
30371;DHT22;17164;48.590;11.410;2022-07-29T02:17:02;19.90;99.90
30371;DHT22;17164;48.590;11.410;2022-07-29T02:19:29;19.90;99.90
30371;DHT22;17164;48.590;11.410;2022-07-29T02:21:57;19.80;99.90
30371;DHT22;17164;48.590;11.410;2022-07-29T02:24:24;19.80;99.90
30371;DHT22;17164;48.590;11.410;2022-07-29T02:26:53;19.80;99.90
30371;DHT22;17164;48.590;11.410;2022-07-29T02:29:23;19.80;99.90
30371;DHT22;17164;48.590;11.410;2022-07-29T02:31:50;19.80;99.90
30371;DHT22;17164;48.590;11.410;2022-07-29T02:34:18;19.80;99.90
30371;DHT22;17164;48.590;11.410;2022-07-29T02:36:45;19.80;99.90
30371;DHT22;17164;48.590;11.410;2022-07-29T02:39:12;19.80;99.90
30371;DHT22;17164;48.590;11.410;2022-07-29T02:41:45;19.80;99.90
30371;DHT22;17164;48.590;11.410;2022-07-29T02:44:17;19.70;99.90
30371;DHT22;17164;48.590;11.410;2022-07-29T02:46:51;19.70;99.90
30371;DHT22;17164;48.590;11.410;2022-07-29T02:52:04;19.70;99.90
30371;DHT22;17164;48.590;11.410;2022-07-29T02:57:22;19.60;99.90
30371;DHT22;17164;48.590;11.410;2022-07-29T02:59:54;19.60;99.90
30371;DHT22;17164;48.590;11.410;2022-07-29T03:02:22;19.60;99.90
30371;DHT22;17164;48.590;11.410;2022-07-29T03:04:50;19.60;99.90
30371;DHT22;17164;48.590;11.410;2022-07-29T03:07:18;19.60;99.90
30371;DHT22;17164;48.590;11.410;2022-07-29T03:09:45;19.60;99.90
30371;DHT22;17164;48.590;11.410;2022-07-29T03:12:11;19.60;99.90
30371;DHT22;17164;48.590;11.410;2022-07-29T03:14:38;19.60;99.90
30371;DHT22;17164;48.590;11.410;2022-07-29T03:17:04;19.50;99.90
30371;DHT22;17164;48.590;11.410;2022-07-29T03:19:31;19.50;99.90
30371;DHT22;17164;48.590;11.410;2022-07-29T03:21:58;19.50;99.90
30371;DHT22;17164;48.590;11.410;2022-07-29T03:24:31;19.60;99.90
30371;DHT22;17164;48.590;11.410;2022-07-29T03:26:57;19.60;99.90
30371;DHT22;17164;48.590;11.410;2022-07-29T03:29:23;19.60;99.90
30371;DHT22;17164;48.590;11.410;2022-07-29T03:31:49;19.60;99.90
30371;DHT22;17164;48.590;11.410;2022-07-29T03:34:15;19.60;99.90
30371;DHT22;17164;48.590;11.410;2022-07-29T03:36:41;19.60;99.90
30371;DHT22;17164;48.590;11.410;2022-07-29T03:39:07;19.60;99.90
30371;DHT22;17164;48.590;11.410;2022-07-29T03:41:36;19.60;99.90
30371;DHT22;17164;48.590;11.410;2022-07-29T03:44:05;19.60;99.90
30371;DHT22;17164;48.590;11.410;2022-07-29T03:46:32;19.50;99.90
30371;DHT22;17164;48.590;11.410;2022-07-29T03:49:01;19.40;99.90
30371;DHT22;17164;48.590;11.410;2022-07-29T03:51:28;19.40;99.90
30371;DHT22;17164;48.590;11.410;2022-07-29T03:53:54;19.30;99.90
30371;DHT22;17164;48.590;11.410;2022-07-29T03:56:21;19.20;99.90
30371;DHT22;17164;48.590;11.410;2022-07-29T03:58:49;19.20;99.90
30371;DHT22;17164;48.590;11.410;2022-07-29T04:01:16;19.10;99.90
30371;DHT22;17164;48.590;11.410;2022-07-29T04:03:43;19.10;99.90
30371;DHT22;17164;48.590;11.410;2022-07-29T04:06:11;19.00;99.90
30371;DHT22;17164;48.590;11.410;2022-07-29T04:08:37;19.00;99.90
30371;DHT22;17164;48.590;11.410;2022-07-29T04:11:03;18.90;99.90
30371;DHT22;17164;48.590;11.410;2022-07-29T04:13:30;18.80;99.90
30371;DHT22;17164;48.590;11.410;2022-07-29T04:15:56;18.80;99.90
30371;DHT22;17164;48.590;11.410;2022-07-29T04:18:22;18.80;99.90
30371;DHT22;17164;48.590;11.410;2022-07-29T04:20:48;18.80;99.90
30371;DHT22;17164;48.590;11.410;2022-07-29T04:23:13;18.70;99.90
30371;DHT22;17164;48.590;11.410;2022-07-29T04:25:40;18.70;99.90
30371;DHT22;17164;48.590;11.410;2022-07-29T04:28:07;18.70;99.90
30371;DHT22;17164;48.590;11.410;2022-07-29T04:30:33;18.60;99.90
30371;DHT22;17164;48.590;11.410;2022-07-29T04:33:01;18.60;99.90
30371;DHT22;17164;48.590;11.410;2022-07-29T04:35:28;18.60;99.90
30371;DHT22;17164;48.590;11.410;2022-07-29T04:37:54;18.60;99.90
30371;DHT22;17164;48.590;11.410;2022-07-29T04:40:20;18.50;99.90
30371;DHT22;17164;48.590;11.410;2022-07-29T04:42:45;18.50;99.90
30371;DHT22;17164;48.590;11.410;2022-07-29T04:45:11;18.50;99.90
30371;DHT22;17164;48.590;11.410;2022-07-29T04:47:37;18.50;99.90
30371;DHT22;17164;48.590;11.410;2022-07-29T04:50:03;18.50;99.90
30371;DHT22;17164;48.590;11.410;2022-07-29T04:52:29;18.50;99.90
30371;DHT22;17164;48.590;11.410;2022-07-29T04:54:54;18.50;99.90
30371;DHT22;17164;48.590;11.410;2022-07-29T04:57:20;18.50;99.90
30371;DHT22;17164;48.590;11.410;2022-07-29T04:59:45;18.50;99.90
30371;DHT22;17164;48.590;11.410;2022-07-29T05:02:11;18.50;99.90
30371;DHT22;17164;48.590;11.410;2022-07-29T05:04:36;18.60;99.90
30371;DHT22;17164;48.590;11.410;2022-07-29T05:07:02;18.60;99.90
30371;DHT22;17164;48.590;11.410;2022-07-29T05:09:28;18.50;99.90
30371;DHT22;17164;48.590;11.410;2022-07-29T05:11:53;18.50;99.90
30371;DHT22;17164;48.590;11.410;2022-07-29T05:14:19;18.50;99.90
30371;DHT22;17164;48.590;11.410;2022-07-29T05:16:44;18.50;99.90
30371;DHT22;17164;48.590;11.410;2022-07-29T05:19:10;18.60;99.90
30371;DHT22;17164;48.590;11.410;2022-07-29T05:21:35;18.60;99.90
30371;DHT22;17164;48.590;11.410;2022-07-29T05:24:01;18.70;99.90
30371;DHT22;17164;48.590;11.410;2022-07-29T05:26:27;18.70;99.90
30371;DHT22;17164;48.590;11.410;2022-07-29T05:28:52;18.70;99.90
30371;DHT22;17164;48.590;11.410;2022-07-29T05:31:19;18.80;99.90
30371;DHT22;17164;48.590;11.410;2022-07-29T05:33:44;18.80;99.90
30371;DHT22;17164;48.590;11.410;2022-07-29T05:36:10;18.80;99.90
30371;DHT22;17164;48.590;11.410;2022-07-29T05:38:37;18.90;99.90
30371;DHT22;17164;48.590;11.410;2022-07-29T05:41:03;18.90;99.90
30371;DHT22;17164;48.590;11.410;2022-07-29T05:43:29;19.00;99.90
30371;DHT22;17164;48.590;11.410;2022-07-29T05:45:54;19.10;99.90
30371;DHT22;17164;48.590;11.410;2022-07-29T05:48:20;19.20;99.90
30371;DHT22;17164;48.590;11.410;2022-07-29T05:50:46;19.30;99.90
30371;DHT22;17164;48.590;11.410;2022-07-29T05:53:11;19.40;99.90
30371;DHT22;17164;48.590;11.410;2022-07-29T05:55:37;19.50;99.90
30371;DHT22;17164;48.590;11.410;2022-07-29T05:58:02;19.50;99.90
30371;DHT22;17164;48.590;11.410;2022-07-29T06:00:28;19.60;99.90
30371;DHT22;17164;48.590;11.410;2022-07-29T06:02:54;19.70;99.90
30371;DHT22;17164;48.590;11.410;2022-07-29T06:05:19;19.80;99.90
30371;DHT22;17164;48.590;11.410;2022-07-29T06:07:45;19.90;99.90
30371;DHT22;17164;48.590;11.410;2022-07-29T06:10:11;20.00;99.90
30371;DHT22;17164;48.590;11.410;2022-07-29T06:12:36;20.00;99.90
30371;DHT22;17164;48.590;11.410;2022-07-29T06:15:02;20.10;99.90
30371;DHT22;17164;48.590;11.410;2022-07-29T06:17:28;20.20;99.90
30371;DHT22;17164;48.590;11.410;2022-07-29T06:19:54;20.20;99.90
30371;DHT22;17164;48.590;11.410;2022-07-29T06:22:19;20.30;99.90
30371;DHT22;17164;48.590;11.410;2022-07-29T06:24:45;20.30;99.90
30371;DHT22;17164;48.590;11.410;2022-07-29T06:27:11;20.40;99.90
30371;DHT22;17164;48.590;11.410;2022-07-29T06:29:37;20.50;99.90
30371;DHT22;17164;48.590;11.410;2022-07-29T06:32:03;20.50;99.90
30371;DHT22;17164;48.590;11.410;2022-07-29T06:34:28;20.60;99.90
30371;DHT22;17164;48.590;11.410;2022-07-29T06:36:54;20.70;99.90
30371;DHT22;17164;48.590;11.410;2022-07-29T06:39:20;20.70;99.90
30371;DHT22;17164;48.590;11.410;2022-07-29T06:41:47;20.80;99.90
30371;DHT22;17164;48.590;11.410;2022-07-29T06:44:14;20.90;99.90
30371;DHT22;17164;48.590;11.410;2022-07-29T06:46:40;21.00;99.90
30371;DHT22;17164;48.590;11.410;2022-07-29T06:49:05;21.00;99.90
30371;DHT22;17164;48.590;11.410;2022-07-29T06:51:31;21.10;99.90
30371;DHT22;17164;48.590;11.410;2022-07-29T06:53:57;21.10;99.90
30371;DHT22;17164;48.590;11.410;2022-07-29T06:56:22;21.20;99.90
30371;DHT22;17164;48.590;11.410;2022-07-29T06:58:48;21.30;99.90
30371;DHT22;17164;48.590;11.410;2022-07-29T07:01:14;21.40;99.90
30371;DHT22;17164;48.590;11.410;2022-07-29T07:03:39;21.50;99.90
30371;DHT22;17164;48.590;11.410;2022-07-29T07:06:05;21.60;99.90
30371;DHT22;17164;48.590;11.410;2022-07-29T07:08:30;21.70;99.90
30371;DHT22;17164;48.590;11.410;2022-07-29T07:10:56;21.70;99.90
30371;DHT22;17164;48.590;11.410;2022-07-29T07:13:22;21.80;99.90
30371;DHT22;17164;48.590;11.410;2022-07-29T07:15:48;21.90;99.90
30371;DHT22;17164;48.590;11.410;2022-07-29T07:18:14;22.00;99.90
30371;DHT22;17164;48.590;11.410;2022-07-29T07:20:40;22.10;99.90
30371;DHT22;17164;48.590;11.410;2022-07-29T07:23:06;22.20;99.90
30371;DHT22;17164;48.590;11.410;2022-07-29T07:25:32;22.30;99.90
30371;DHT22;17164;48.590;11.410;2022-07-29T07:27:57;22.40;99.90
30371;DHT22;17164;48.590;11.410;2022-07-29T07:30:23;22.50;99.90
30371;DHT22;17164;48.590;11.410;2022-07-29T07:32:49;22.60;99.90
30371;DHT22;17164;48.590;11.410;2022-07-29T07:35:14;22.70;99.90
30371;DHT22;17164;48.590;11.410;2022-07-29T07:37:40;22.80;99.90
30371;DHT22;17164;48.590;11.410;2022-07-29T07:40:06;22.90;99.90
30371;DHT22;17164;48.590;11.410;2022-07-29T07:42:32;23.10;99.90
30371;DHT22;17164;48.590;11.410;2022-07-29T07:44:57;23.20;96.60
30371;DHT22;17164;48.590;11.410;2022-07-29T07:47:23;23.20;96.10
30371;DHT22;17164;48.590;11.410;2022-07-29T07:49:50;23.40;95.30
30371;DHT22;17164;48.590;11.410;2022-07-29T07:52:16;23.50;95.80
30371;DHT22;17164;48.590;11.410;2022-07-29T07:54:42;23.60;95.10
30371;DHT22;17164;48.590;11.410;2022-07-29T07:57:09;23.70;94.00
30371;DHT22;17164;48.590;11.410;2022-07-29T07:59:35;23.80;93.00
30371;DHT22;17164;48.590;11.410;2022-07-29T08:02:00;23.80;93.20
30371;DHT22;17164;48.590;11.410;2022-07-29T08:04:26;23.90;93.20
30371;DHT22;17164;48.590;11.410;2022-07-29T08:06:52;23.90;93.00
30371;DHT22;17164;48.590;11.410;2022-07-29T08:09:20;24.00;92.40
30371;DHT22;17164;48.590;11.410;2022-07-29T08:11:46;24.10;92.20
30371;DHT22;17164;48.590;11.410;2022-07-29T08:14:11;24.20;91.90
30371;DHT22;17164;48.590;11.410;2022-07-29T08:16:39;24.20;91.80
30371;DHT22;17164;48.590;11.410;2022-07-29T08:19:05;24.30;91.50
30371;DHT22;17164;48.590;11.410;2022-07-29T08:21:31;24.40;91.20
30371;DHT22;17164;48.590;11.410;2022-07-29T08:23:56;24.40;90.90
30371;DHT22;17164;48.590;11.410;2022-07-29T08:26:43;24.40;90.80
30371;DHT22;17164;48.590;11.410;2022-07-29T08:29:08;24.50;90.90
30371;DHT22;17164;48.590;11.410;2022-07-29T08:31:38;24.50;90.40
30371;DHT22;17164;48.590;11.410;2022-07-29T08:34:04;24.60;89.70
30371;DHT22;17164;48.590;11.410;2022-07-29T08:36:31;24.60;90.40
30371;DHT22;17164;48.590;11.410;2022-07-29T08:38:57;24.70;91.30
30371;DHT22;17164;48.590;11.410;2022-07-29T08:41:23;24.80;89.80
30371;DHT22;17164;48.590;11.410;2022-07-29T08:43:49;24.90;89.40
30371;DHT22;17164;48.590;11.410;2022-07-29T08:46:16;24.90;90.40
30371;DHT22;17164;48.590;11.410;2022-07-29T08:48:42;25.00;88.80
30371;DHT22;17164;48.590;11.410;2022-07-29T08:51:08;25.00;87.90
30371;DHT22;17164;48.590;11.410;2022-07-29T08:53:34;25.10;89.00
30371;DHT22;17164;48.590;11.410;2022-07-29T08:56:03;25.30;87.40
30371;DHT22;17164;48.590;11.410;2022-07-29T08:58:32;25.30;87.30
30371;DHT22;17164;48.590;11.410;2022-07-29T09:01:01;25.50;86.00
30371;DHT22;17164;48.590;11.410;2022-07-29T09:03:30;25.60;84.80
30371;DHT22;17164;48.590;11.410;2022-07-29T09:05:58;25.60;86.70
30371;DHT22;17164;48.590;11.410;2022-07-29T09:08:24;25.70;85.30
30371;DHT22;17164;48.590;11.410;2022-07-29T09:10:50;25.70;83.20
30371;DHT22;17164;48.590;11.410;2022-07-29T09:13:17;25.70;84.00
30371;DHT22;17164;48.590;11.410;2022-07-29T09:15:43;25.80;84.80
30371;DHT22;17164;48.590;11.410;2022-07-29T09:18:09;25.80;82.60
30371;DHT22;17164;48.590;11.410;2022-07-29T09:20:34;25.70;82.40
30371;DHT22;17164;48.590;11.410;2022-07-29T09:23:19;25.60;82.80
30371;DHT22;17164;48.590;11.410;2022-07-29T09:25:44;25.60;83.10
30371;DHT22;17164;48.590;11.410;2022-07-29T09:28:15;25.70;82.20
30371;DHT22;17164;48.590;11.410;2022-07-29T09:30:54;25.80;81.60
30371;DHT22;17164;48.590;11.410;2022-07-29T09:33:21;25.80;81.20
30371;DHT22;17164;48.590;11.410;2022-07-29T09:35:59;25.90;80.70
30371;DHT22;17164;48.590;11.410;2022-07-29T09:38:27;25.90;81.40
30371;DHT22;17164;48.590;11.410;2022-07-29T09:40:58;25.90;81.50
30371;DHT22;17164;48.590;11.410;2022-07-29T09:43:24;25.80;81.10
30371;DHT22;17164;48.590;11.410;2022-07-29T09:45:49;25.70;81.10
30371;DHT22;17164;48.590;11.410;2022-07-29T09:48:17;25.70;80.80
30371;DHT22;17164;48.590;11.410;2022-07-29T09:50:44;25.70;80.30
30371;DHT22;17164;48.590;11.410;2022-07-29T09:53:12;25.70;80.20
30371;DHT22;17164;48.590;11.410;2022-07-29T09:55:54;25.60;81.40
30371;DHT22;17164;48.590;11.410;2022-07-29T09:58:21;25.60;81.40
30371;DHT22;17164;48.590;11.410;2022-07-29T10:00:49;25.70;81.60
30371;DHT22;17164;48.590;11.410;2022-07-29T10:03:16;25.70;81.00
30371;DHT22;17164;48.590;11.410;2022-07-29T10:05:42;25.80;83.00
30371;DHT22;17164;48.590;11.410;2022-07-29T10:08:09;25.70;81.50
30371;DHT22;17164;48.590;11.410;2022-07-29T10:10:41;25.70;81.30
30371;DHT22;17164;48.590;11.410;2022-07-29T10:13:14;25.80;82.00
30371;DHT22;17164;48.590;11.410;2022-07-29T10:15:43;25.70;82.50
30371;DHT22;17164;48.590;11.410;2022-07-29T10:18:13;25.70;83.60
30371;DHT22;17164;48.590;11.410;2022-07-29T10:20:40;25.80;84.20
30371;DHT22;17164;48.590;11.410;2022-07-29T10:23:05;25.90;85.50
30371;DHT22;17164;48.590;11.410;2022-07-29T10:25:31;25.90;86.30
30371;DHT22;17164;48.590;11.410;2022-07-29T10:27:57;26.00;85.80
30371;DHT22;17164;48.590;11.410;2022-07-29T10:30:24;26.10;86.00
30371;DHT22;17164;48.590;11.410;2022-07-29T10:33:10;26.30;83.70
30371;DHT22;17164;48.590;11.410;2022-07-29T10:35:47;26.40;85.40
30371;DHT22;17164;48.590;11.410;2022-07-29T10:41:17;26.70;84.10
30371;DHT22;17164;48.590;11.410;2022-07-29T10:43:59;26.80;79.80
30371;DHT22;17164;48.590;11.410;2022-07-29T10:46:26;26.90;79.10
30371;DHT22;17164;48.590;11.410;2022-07-29T10:54:36;27.10;77.10
30371;DHT22;17164;48.590;11.410;2022-07-29T10:59:39;27.20;77.30
30371;DHT22;17164;48.590;11.410;2022-07-29T11:07:25;27.30;76.50
30371;DHT22;17164;48.590;11.410;2022-07-29T11:10:20;27.30;75.70
30371;DHT22;17164;48.590;11.410;2022-07-29T11:12:47;27.40;74.60
30371;DHT22;17164;48.590;11.410;2022-07-29T11:15:15;27.40;77.00
30371;DHT22;17164;48.590;11.410;2022-07-29T11:23:34;27.70;75.90
30371;DHT22;17164;48.590;11.410;2022-07-29T11:29:21;27.80;75.50
30371;DHT22;17164;48.590;11.410;2022-07-29T11:31:51;27.90;71.50
30371;DHT22;17164;48.590;11.410;2022-07-29T11:34:29;28.00;72.10
30371;DHT22;17164;48.590;11.410;2022-07-29T11:39:34;27.90;73.30
30371;DHT22;17164;48.590;11.410;2022-07-29T11:47:34;28.00;71.90
30371;DHT22;17164;48.590;11.410;2022-07-29T11:50:03;28.00;73.20
30371;DHT22;17164;48.590;11.410;2022-07-29T11:52:38;28.00;71.60
30371;DHT22;17164;48.590;11.410;2022-07-29T11:55:11;28.10;70.80
30371;DHT22;17164;48.590;11.410;2022-07-29T11:57:55;28.20;68.00
30371;DHT22;17164;48.590;11.410;2022-07-29T12:00:26;28.30;68.00
30371;DHT22;17164;48.590;11.410;2022-07-29T12:02:52;28.40;69.10
30371;DHT22;17164;48.590;11.410;2022-07-29T12:05:18;28.20;70.70
30371;DHT22;17164;48.590;11.410;2022-07-29T12:07:44;28.10;71.80
30371;DHT22;17164;48.590;11.410;2022-07-29T12:10:10;27.90;72.10
30371;DHT22;17164;48.590;11.410;2022-07-29T12:12:36;27.90;72.20
30371;DHT22;17164;48.590;11.410;2022-07-29T12:15:12;28.00;72.90
30371;DHT22;17164;48.590;11.410;2022-07-29T12:17:38;28.20;72.40
30371;DHT22;17164;48.590;11.410;2022-07-29T12:20:05;28.40;71.60
30371;DHT22;17164;48.590;11.410;2022-07-29T12:22:41;28.50;68.00
30371;DHT22;17164;48.590;11.410;2022-07-29T12:25:11;28.70;66.10
30371;DHT22;17164;48.590;11.410;2022-07-29T12:27:37;28.90;64.00
30371;DHT22;17164;48.590;11.410;2022-07-29T12:30:14;29.10;63.80
30371;DHT22;17164;48.590;11.410;2022-07-29T12:32:45;29.20;63.80
30371;DHT22;17164;48.590;11.410;2022-07-29T12:35:13;29.10;60.00
30371;DHT22;17164;48.590;11.410;2022-07-29T12:37:40;28.90;59.90
30371;DHT22;17164;48.590;11.410;2022-07-29T12:40:07;28.80;62.60
30371;DHT22;17164;48.590;11.410;2022-07-29T12:42:34;28.70;60.30
30371;DHT22;17164;48.590;11.410;2022-07-29T12:45:00;28.60;62.70
30371;DHT22;17164;48.590;11.410;2022-07-29T12:47:27;28.50;65.70
30371;DHT22;17164;48.590;11.410;2022-07-29T12:50:12;28.40;63.30
30371;DHT22;17164;48.590;11.410;2022-07-29T12:52:39;28.40;60.70
30371;DHT22;17164;48.590;11.410;2022-07-29T12:55:05;28.30;62.10
30371;DHT22;17164;48.590;11.410;2022-07-29T12:57:32;28.30;63.00
30371;DHT22;17164;48.590;11.410;2022-07-29T13:00:04;28.30;62.10
30371;DHT22;17164;48.590;11.410;2022-07-29T13:02:30;28.30;60.60
30371;DHT22;17164;48.590;11.410;2022-07-29T13:04:57;28.30;58.30
30371;DHT22;17164;48.590;11.410;2022-07-29T13:07:28;28.30;58.20
30371;DHT22;17164;48.590;11.410;2022-07-29T13:10:17;28.20;58.10
30371;DHT22;17164;48.590;11.410;2022-07-29T13:13:09;28.30;58.70
30371;DHT22;17164;48.590;11.410;2022-07-29T13:15:40;28.20;59.50
30371;DHT22;17164;48.590;11.410;2022-07-29T13:18:29;28.20;60.20
30371;DHT22;17164;48.590;11.410;2022-07-29T13:20:56;28.20;60.30
30371;DHT22;17164;48.590;11.410;2022-07-29T13:23:22;28.10;58.00
30371;DHT22;17164;48.590;11.410;2022-07-29T13:25:48;28.00;57.60
30371;DHT22;17164;48.590;11.410;2022-07-29T13:28:14;27.90;56.40
30371;DHT22;17164;48.590;11.410;2022-07-29T13:30:40;27.90;57.10
30371;DHT22;17164;48.590;11.410;2022-07-29T13:33:06;27.80;57.90
30371;DHT22;17164;48.590;11.410;2022-07-29T13:35:32;27.70;58.40
30371;DHT22;17164;48.590;11.410;2022-07-29T13:37:57;27.60;59.10
30371;DHT22;17164;48.590;11.410;2022-07-29T13:40:23;27.60;60.80
30371;DHT22;17164;48.590;11.410;2022-07-29T13:42:49;27.50;61.70
30371;DHT22;17164;48.590;11.410;2022-07-29T13:45:15;27.40;60.90
30371;DHT22;17164;48.590;11.410;2022-07-29T13:47:41;27.30;61.40
30371;DHT22;17164;48.590;11.410;2022-07-29T13:50:07;27.30;60.20
30371;DHT22;17164;48.590;11.410;2022-07-29T13:52:35;27.20;60.40
30371;DHT22;17164;48.590;11.410;2022-07-29T13:55:03;27.10;61.20
30371;DHT22;17164;48.590;11.410;2022-07-29T13:57:29;27.00;62.00
30371;DHT22;17164;48.590;11.410;2022-07-29T13:59:55;26.90;63.20
30371;DHT22;17164;48.590;11.410;2022-07-29T14:02:21;26.80;63.40
30371;DHT22;17164;48.590;11.410;2022-07-29T14:04:47;26.80;63.10
30371;DHT22;17164;48.590;11.410;2022-07-29T14:07:13;26.80;63.30
30371;DHT22;17164;48.590;11.410;2022-07-29T14:09:38;26.70;62.80
30371;DHT22;17164;48.590;11.410;2022-07-29T14:12:04;26.70;62.80
30371;DHT22;17164;48.590;11.410;2022-07-29T14:14:30;26.70;63.30
30371;DHT22;17164;48.590;11.410;2022-07-29T14:16:58;26.70;64.40
30371;DHT22;17164;48.590;11.410;2022-07-29T14:19:23;26.60;65.90
30371;DHT22;17164;48.590;11.410;2022-07-29T14:21:49;26.60;65.50
30371;DHT22;17164;48.590;11.410;2022-07-29T14:24:15;26.60;65.30
30371;DHT22;17164;48.590;11.410;2022-07-29T14:26:41;26.60;64.30
30371;DHT22;17164;48.590;11.410;2022-07-29T14:29:06;26.60;64.90
30371;DHT22;17164;48.590;11.410;2022-07-29T14:31:32;26.50;64.30
30371;DHT22;17164;48.590;11.410;2022-07-29T14:33:58;26.50;66.00
30371;DHT22;17164;48.590;11.410;2022-07-29T14:36:23;26.40;65.90
30371;DHT22;17164;48.590;11.410;2022-07-29T14:38:49;26.20;66.80
30371;DHT22;17164;48.590;11.410;2022-07-29T14:41:15;26.10;67.50
30371;DHT22;17164;48.590;11.410;2022-07-29T14:43:41;26.00;68.00
30371;DHT22;17164;48.590;11.410;2022-07-29T14:46:06;26.00;68.50
30371;DHT22;17164;48.590;11.410;2022-07-29T14:48:33;26.00;68.80
30371;DHT22;17164;48.590;11.410;2022-07-29T14:50:59;26.00;68.40
30371;DHT22;17164;48.590;11.410;2022-07-29T14:53:24;25.90;68.30
30371;DHT22;17164;48.590;11.410;2022-07-29T14:55:50;25.90;68.50
30371;DHT22;17164;48.590;11.410;2022-07-29T14:58:16;25.90;69.20
30371;DHT22;17164;48.590;11.410;2022-07-29T15:00:42;25.90;69.90
30371;DHT22;17164;48.590;11.410;2022-07-29T15:03:07;25.80;69.70
30371;DHT22;17164;48.590;11.410;2022-07-29T15:05:36;25.80;69.10
30371;DHT22;17164;48.590;11.410;2022-07-29T15:08:02;25.80;68.80
30371;DHT22;17164;48.590;11.410;2022-07-29T15:10:28;25.90;69.60
30371;DHT22;17164;48.590;11.410;2022-07-29T15:12:54;25.90;68.60
30371;DHT22;17164;48.590;11.410;2022-07-29T15:15:20;26.00;68.70
30371;DHT22;17164;48.590;11.410;2022-07-29T15:17:47;26.10;67.60
30371;DHT22;17164;48.590;11.410;2022-07-29T15:20:14;26.10;67.00
30371;DHT22;17164;48.590;11.410;2022-07-29T15:22:39;26.20;66.90
30371;DHT22;17164;48.590;11.410;2022-07-29T15:25:08;26.20;67.60
30371;DHT22;17164;48.590;11.410;2022-07-29T15:27:33;26.10;67.50
30371;DHT22;17164;48.590;11.410;2022-07-29T15:29:59;26.10;66.70
30371;DHT22;17164;48.590;11.410;2022-07-29T15:32:25;26.10;66.80
30371;DHT22;17164;48.590;11.410;2022-07-29T15:34:51;26.10;67.30
30371;DHT22;17164;48.590;11.410;2022-07-29T15:37:16;26.00;67.80
30371;DHT22;17164;48.590;11.410;2022-07-29T15:39:42;26.00;68.40
30371;DHT22;17164;48.590;11.410;2022-07-29T15:42:07;26.00;66.20
30371;DHT22;17164;48.590;11.410;2022-07-29T15:44:33;26.00;65.10
30371;DHT22;17164;48.590;11.410;2022-07-29T15:46:59;26.00;64.80
30371;DHT22;17164;48.590;11.410;2022-07-29T15:49:29;26.00;65.00
30371;DHT22;17164;48.590;11.410;2022-07-29T15:51:59;25.90;65.20
30371;DHT22;17164;48.590;11.410;2022-07-29T15:54:25;25.90;65.30
30371;DHT22;17164;48.590;11.410;2022-07-29T15:56:51;25.90;65.30
30371;DHT22;17164;48.590;11.410;2022-07-29T15:59:17;25.90;65.60
30371;DHT22;17164;48.590;11.410;2022-07-29T16:01:43;25.90;66.80
30371;DHT22;17164;48.590;11.410;2022-07-29T16:04:08;25.90;68.80
30371;DHT22;17164;48.590;11.410;2022-07-29T16:06:34;25.80;70.10